createdAt,value
2019-02-15T00:00:56.570Z,68.00
2019-02-15T00:03:26.031Z,68.05
2019-02-15T00:05:55.679Z,68.90
2019-02-15T00:08:25.263Z,69.08
2019-02-15T00:10:54.859Z,70.99
2019-02-15T00:13:23.947Z,71.65
2019-02-15T00:15:53.445Z,71.53
2019-02-15T00:18:51.218Z,71.25
2019-02-15T00:21:21.842Z,70.47
2019-02-15T00:23:51.339Z,69.63
2019-02-15T00:26:20.555Z,70.06
2019-02-15T00:28:50.044Z,70.01
2019-02-15T00:31:19.684Z,69.99
2019-02-15T00:33:49.990Z,70.41
2019-02-15T00:36:19.481Z,70.27
2019-02-15T00:38:48.794Z,70.28
2019-02-15T00:41:18.396Z,70.57
2019-02-15T00:43:47.802Z,70.85
2019-02-15T00:46:34.518Z,70.78
2019-02-15T00:49:04.833Z,70.84
2019-02-15T00:51:42.626Z,70.87
2019-02-15T00:54:16.667Z,71.56
2019-02-15T00:56:47.637Z,72.37
2019-02-15T00:59:20.505Z,71.28
2019-02-15T01:01:54.167Z,71.49
2019-02-15T01:04:34.699Z,71.27
2019-02-15T01:07:21.850Z,71.22
2019-02-15T01:09:52.869Z,71.41
2019-02-15T01:12:23.400Z,71.49
2019-02-15T01:14:53.044Z,71.42
2019-02-15T01:17:22.384Z,71.99
2019-02-15T01:19:51.737Z,72.04
2019-02-15T01:22:21.339Z,72.12
2019-02-15T01:24:51.233Z,72.57
2019-02-15T01:27:27.741Z,72.30
2019-02-15T01:30:01.440Z,72.23
2019-02-15T01:32:41.531Z,71.90
2019-02-15T01:35:27.807Z,72.23
2019-02-15T01:37:58.473Z,72.16
2019-02-15T01:40:32.115Z,72.38
2019-02-15T01:43:07.377Z,72.17
2019-02-15T01:45:38.375Z,72.16
2019-02-15T01:49:01.659Z,72.26
2019-02-15T01:51:31.751Z,71.89
2019-02-15T01:54:00.977Z,71.84
2019-02-15T01:56:30.812Z,72.16
2019-02-15T01:59:00.273Z,71.67
2019-02-15T02:01:30.006Z,71.67
2019-02-15T02:04:01.048Z,71.82
2019-02-15T02:06:30.442Z,71.78
2019-02-15T02:09:01.227Z,71.68
2019-02-15T02:11:31.945Z,72.15
2019-02-15T02:14:01.605Z,71.71
2019-02-15T02:16:31.419Z,71.59
2019-02-15T02:19:00.822Z,71.11
2019-02-15T02:21:30.717Z,71.00
2019-02-15T02:24:00.361Z,71.41
2019-02-15T02:26:31.330Z,71.46
2019-02-15T02:29:01.551Z,71.31
2019-02-15T02:31:31.131Z,71.25
2019-02-15T02:34:01.184Z,71.25
2019-02-15T02:36:47.882Z,71.00
2019-02-15T02:39:17.878Z,70.78
2019-02-15T02:41:47.851Z,71.05
2019-02-15T02:44:17.896Z,70.87
2019-02-15T02:46:50.165Z,70.77
2019-02-15T02:49:20.001Z,70.88
2019-02-15T02:51:49.501Z,70.82
2019-02-15T02:54:18.766Z,70.75
2019-02-15T02:56:48.569Z,70.56
2019-02-15T02:59:18.398Z,70.72
2019-02-15T03:01:48.644Z,70.77
2019-02-15T03:04:19.282Z,71.02
2019-02-15T03:06:49.255Z,70.79
2019-02-15T03:09:19.182Z,71.15
2019-02-15T03:11:48.983Z,71.23
2019-02-15T03:14:18.945Z,71.02
2019-02-15T03:16:48.767Z,71.50
2019-02-15T03:19:18.523Z,71.53
2019-02-15T03:21:48.771Z,70.99
2019-02-15T03:24:19.370Z,71.15
2019-02-15T03:26:49.166Z,71.40
2019-02-15T03:29:18.389Z,71.60
2019-02-15T03:31:48.679Z,71.38
2019-02-15T03:34:18.410Z,71.21
2019-02-15T03:36:56.456Z,71.44
2019-02-15T03:39:33.357Z,71.30
2019-02-15T03:42:03.438Z,71.44
2019-02-15T03:44:33.091Z,71.31
2019-02-15T03:47:04.237Z,71.48
2019-02-15T03:49:34.380Z,71.78
2019-02-15T03:52:03.490Z,71.70
2019-02-15T03:54:32.724Z,71.70
2019-02-15T03:57:02.805Z,71.58
2019-02-15T03:59:31.907Z,71.82
2019-02-15T04:02:02.033Z,72.39
2019-02-15T04:04:32.538Z,72.13
2019-02-15T04:07:02.806Z,72.56
2019-02-15T04:09:32.720Z,72.56
2019-02-15T04:12:02.713Z,73.04
2019-02-15T04:14:33.440Z,72.79
2019-02-15T04:17:02.651Z,72.93
2019-02-15T04:19:32.545Z,72.93
2019-02-15T04:22:02.783Z,73.37
2019-02-15T04:24:32.624Z,73.45
2019-02-15T04:27:02.712Z,73.52
2019-02-15T04:29:32.604Z,73.44
2019-02-15T04:32:01.812Z,73.34
2019-02-15T04:34:31.804Z,72.98
2019-02-15T04:37:01.961Z,72.98
2019-02-15T04:39:33.210Z,72.64
2019-02-15T04:42:03.171Z,73.01
2019-02-15T04:44:42.356Z,72.94
2019-02-15T04:47:04.468Z,72.94
2019-02-15T04:49:34.496Z,73.04
2019-02-15T04:52:04.362Z,72.51
2019-02-15T04:54:35.338Z,72.39
2019-02-15T04:57:05.619Z,72.36
2019-02-15T04:59:35.616Z,72.53
2019-02-15T05:02:05.661Z,72.28
2019-02-15T05:04:35.831Z,72.37
2019-02-15T05:07:05.116Z,72.37
2019-02-15T05:09:35.185Z,72.32
2019-02-15T05:12:05.693Z,72.23
2019-02-15T05:14:35.671Z,71.73
2019-02-15T05:17:04.990Z,72.19
2019-02-15T05:19:34.207Z,72.19
2019-02-15T05:22:03.383Z,72.24
2019-02-15T05:24:33.345Z,72.24
2019-02-15T05:27:03.478Z,72.21
2019-02-15T05:29:33.593Z,73.09
2019-02-15T05:32:03.737Z,72.90
2019-02-15T05:34:33.712Z,72.15
2019-02-15T05:37:02.964Z,72.25
2019-02-15T05:39:33.012Z,72.25
2019-02-15T05:42:02.917Z,72.76
2019-02-15T05:44:32.905Z,72.73
2019-02-15T05:47:02.194Z,72.88
2019-02-15T05:49:32.959Z,72.88
2019-02-15T05:52:03.887Z,72.27
2019-02-15T05:54:33.384Z,72.27
2019-02-15T05:57:03.450Z,72.76
2019-02-15T05:59:33.621Z,72.75
2019-02-15T06:02:02.938Z,72.94
2019-02-15T06:04:32.932Z,72.63
2019-02-15T06:07:03.468Z,72.37
2019-02-15T06:09:33.985Z,72.37
2019-02-15T06:12:03.208Z,72.50
2019-02-15T06:14:32.591Z,72.50
2019-02-15T06:17:02.055Z,72.36
2019-02-15T06:19:31.318Z,72.13
2019-02-15T06:22:01.038Z,72.15
2019-02-15T06:24:30.470Z,72.41
2019-02-15T06:27:01.434Z,72.24
2019-02-15T06:29:30.650Z,72.37
2019-02-15T06:32:00.866Z,72.16
2019-02-15T06:34:30.178Z,72.28
2019-02-15T06:36:59.666Z,72.11
2019-02-15T06:39:29.472Z,72.11
2019-02-15T06:41:58.790Z,72.61
2019-02-15T06:44:28.195Z,72.73
2019-02-15T06:46:58.966Z,72.75
2019-02-15T06:49:29.008Z,72.86
2019-02-15T06:51:58.669Z,72.82
2019-02-15T06:54:27.843Z,72.73
2019-02-15T06:56:57.180Z,72.23
2019-02-15T06:59:37.911Z,72.23
2019-02-15T07:02:17.783Z,72.35
2019-02-15T07:04:48.574Z,72.42
2019-02-15T07:07:18.716Z,72.54
2019-02-15T07:09:48.095Z,72.51
2019-02-15T07:12:17.230Z,72.31
2019-02-15T07:14:46.430Z,72.04
2019-02-15T07:17:15.646Z,72.11
2019-02-15T07:19:45.050Z,71.66
2019-02-15T07:22:14.522Z,71.59
2019-02-15T07:24:44.542Z,71.59
2019-02-15T07:27:14.849Z,71.42
2019-02-15T07:29:44.860Z,71.37
2019-02-15T07:32:14.088Z,71.28
2019-02-15T07:34:43.481Z,71.12
2019-02-15T07:37:12.909Z,70.64
2019-02-15T07:39:43.217Z,70.46
2019-02-15T07:42:12.518Z,70.60
2019-02-15T07:44:41.894Z,70.45
2019-02-15T07:47:11.945Z,70.04
2019-02-15T07:49:41.570Z,70.16
2019-02-15T07:52:10.936Z,69.77
2019-02-15T07:54:40.236Z,69.75
2019-02-15T07:57:09.462Z,69.45
2019-02-15T07:59:39.105Z,69.11
2019-02-15T08:02:09.084Z,69.36
2019-02-15T08:04:38.425Z,69.01
2019-02-15T08:07:08.788Z,68.70
2019-02-15T08:09:39.049Z,68.81
2019-02-15T08:12:09.110Z,68.92
2019-02-15T08:14:38.339Z,68.54
2019-02-15T08:17:07.835Z,68.41
2019-02-15T08:19:37.547Z,68.18
2019-02-15T08:22:07.728Z,68.04
2019-02-15T08:24:38.707Z,67.44
2019-02-15T08:27:08.118Z,67.39
2019-02-15T08:29:38.886Z,69.19
2019-02-15T08:32:08.232Z,68.42
2019-02-15T08:34:37.882Z,67.75
2019-02-15T08:37:08.006Z,67.28
2019-02-15T08:39:37.718Z,67.00
2019-02-15T08:42:07.097Z,66.34
2019-02-15T08:44:36.735Z,66.82
2019-02-15T08:47:06.927Z,66.45
2019-02-15T08:49:36.922Z,66.34
2019-02-15T08:52:06.548Z,65.68
2019-02-15T08:54:35.762Z,65.64
2019-02-15T08:57:05.084Z,64.22
2019-02-15T08:59:34.327Z,63.36
2019-02-15T09:02:07.376Z,62.66
2019-02-15T09:04:49.940Z,62.31
2019-02-15T09:07:19.616Z,61.53
2019-02-15T09:09:50.680Z,60.68
2019-02-15T09:12:20.851Z,57.44
2019-02-15T09:14:51.036Z,56.60
2019-02-15T09:17:20.424Z,56.39
2019-02-15T09:19:50.137Z,55.36
2019-02-15T09:22:20.154Z,53.52
2019-02-15T09:24:50.194Z,45.35
2019-02-15T09:27:25.508Z,47.37
2019-02-15T09:29:56.621Z,52.14
2019-02-15T09:32:25.942Z,50.99
2019-02-15T09:34:55.360Z,52.53
2019-02-15T09:37:24.743Z,53.34
2019-02-15T09:39:56.567Z,49.92
2019-02-15T09:42:26.592Z,46.71
2019-02-15T09:44:56.672Z,49.80
2019-02-15T09:47:26.876Z,45.79
2019-02-15T09:49:56.580Z,44.23
2019-02-15T09:52:26.506Z,48.48
2019-02-15T09:54:55.849Z,46.52
2019-02-15T09:57:26.425Z,40.47
2019-02-15T09:59:56.710Z,42.04
2019-02-15T10:02:26.211Z,43.26
2019-02-15T10:04:56.057Z,47.18
2019-02-15T10:07:26.197Z,40.92
2019-02-15T10:09:55.496Z,45.53
2019-02-15T10:12:24.882Z,47.53
2019-02-15T10:14:56.322Z,50.77
2019-02-15T10:17:26.809Z,47.30
2019-02-15T10:19:56.106Z,46.60
2019-02-15T10:22:26.582Z,50.66
2019-02-15T10:24:55.798Z,47.02
2019-02-15T10:27:25.938Z,39.82
2019-02-15T10:29:55.198Z,44.71
2019-02-15T10:32:24.832Z,48.99
2019-02-15T10:34:56.269Z,47.94
2019-02-15T10:37:26.276Z,48.12
2019-02-15T10:39:55.466Z,49.46
2019-02-15T10:42:24.680Z,50.10
2019-02-15T10:44:55.258Z,41.30
2019-02-15T10:47:25.518Z,41.46
2019-02-15T10:49:56.635Z,44.88
2019-02-15T10:52:27.304Z,42.56
2019-02-15T10:54:56.694Z,39.68
2019-02-15T10:57:26.584Z,36.97
2019-02-15T10:59:55.905Z,40.19
2019-02-15T11:02:25.426Z,39.27
2019-02-15T11:04:55.534Z,32.61
2019-02-15T11:07:25.060Z,29.10
2019-02-15T11:09:54.807Z,28.37
2019-02-15T11:12:24.954Z,34.50
2019-02-15T11:14:54.289Z,43.22
2019-02-15T11:17:23.670Z,46.40
2019-02-15T11:19:53.067Z,45.60
2019-02-15T11:22:23.252Z,43.16
2019-02-15T11:24:53.127Z,33.07
2019-02-15T11:27:24.198Z,39.24
2019-02-15T11:29:54.900Z,39.51
2019-02-15T11:32:24.596Z,35.22
2019-02-15T11:34:54.834Z,34.28
2019-02-15T11:37:24.509Z,37.76
2019-02-15T11:39:54.790Z,36.43
2019-02-15T11:42:24.938Z,34.17
2019-02-15T11:44:55.492Z,27.73
2019-02-15T11:47:25.056Z,27.30
2019-02-15T11:49:55.279Z,31.52
2019-02-15T11:52:24.500Z,32.02
2019-02-15T11:54:54.326Z,28.39
2019-02-15T11:57:23.466Z,22.94
2019-02-15T11:59:53.623Z,19.52
2019-02-15T12:02:24.662Z,19.68
2019-02-15T12:04:54.734Z,20.97
2019-02-15T12:07:24.222Z,24.67
2019-02-15T12:09:54.881Z,27.71
2019-02-15T12:12:24.071Z,26.99
2019-02-15T12:14:54.198Z,24.78
2019-02-15T12:17:23.364Z,25.06
2019-02-15T12:19:52.895Z,22.55
2019-02-15T12:22:23.000Z,20.42
2019-02-15T12:24:52.186Z,21.29
2019-02-15T12:27:22.100Z,25.47
2019-02-15T12:29:51.412Z,26.58
2019-02-15T12:32:20.594Z,25.42
2019-02-15T12:34:50.272Z,29.92
2019-02-15T12:37:20.404Z,25.61
2019-02-15T12:39:50.950Z,25.61
2019-02-15T12:42:21.621Z,23.95
2019-02-15T12:44:51.394Z,28.61
2019-02-15T12:47:21.251Z,31.61
2019-02-15T12:49:51.737Z,26.92
2019-02-15T12:52:20.870Z,25.55
2019-02-15T12:54:50.610Z,28.33
2019-02-15T12:57:21.088Z,27.47
2019-02-15T12:59:51.302Z,27.25
2019-02-15T13:02:21.422Z,28.00
2019-02-15T13:04:51.038Z,32.59
2019-02-15T13:07:20.978Z,36.55
2019-02-15T13:09:52.029Z,37.61
2019-02-15T13:12:21.492Z,26.87
2019-02-15T13:14:52.520Z,23.03
2019-02-15T13:17:24.726Z,18.43
2019-02-15T13:19:52.990Z,19.75
2019-02-15T13:22:22.325Z,17.33
2019-02-15T13:24:52.021Z,18.82
2019-02-15T13:27:21.642Z,18.92
2019-02-15T13:29:51.550Z,18.69
2019-02-15T13:32:20.993Z,21.79
2019-02-15T13:34:51.520Z,22.12
2019-02-15T13:37:21.029Z,22.48
2019-02-15T13:39:50.550Z,22.32
2019-02-15T13:42:19.949Z,24.53
2019-02-15T13:44:49.270Z,26.86
2019-02-15T13:47:18.910Z,28.33
2019-02-15T13:49:48.446Z,30.66
2019-02-15T13:52:19.214Z,28.87
2019-02-15T13:54:48.591Z,28.65
2019-02-15T13:57:18.422Z,28.37
2019-02-15T13:59:48.162Z,30.71
2019-02-15T14:02:17.883Z,34.94
2019-02-15T14:04:47.157Z,34.14
2019-02-15T14:07:18.265Z,33.44
2019-02-15T14:09:48.073Z,29.20
2019-02-15T14:12:18.724Z,33.08
2019-02-15T14:14:48.420Z,34.78
2019-02-15T14:17:18.499Z,32.59
2019-02-15T14:19:48.535Z,29.67
2019-02-15T14:22:17.905Z,32.19
2019-02-15T14:24:47.587Z,30.61
2019-02-15T14:27:20.444Z,32.84
2019-02-15T14:29:50.373Z,31.57
2019-02-15T14:32:20.106Z,33.97
2019-02-15T14:34:49.732Z,37.88
2019-02-15T14:37:19.699Z,40.80
2019-02-15T14:39:49.366Z,38.51
2019-02-15T14:42:18.826Z,38.48
2019-02-15T14:44:49.070Z,39.07
2019-02-15T14:47:23.264Z,39.88
2019-02-15T14:49:52.971Z,41.82
2019-02-15T14:52:22.033Z,43.44
2019-02-15T14:54:53.306Z,41.70
2019-02-15T14:57:23.300Z,42.06
2019-02-15T14:59:54.387Z,43.13
2019-02-15T15:02:24.190Z,43.91
2019-02-15T15:04:53.537Z,42.99
2019-02-15T15:07:23.167Z,44.28
2019-02-15T15:09:52.803Z,43.59
2019-02-15T15:12:22.409Z,44.21
2019-02-15T15:14:52.328Z,44.63
2019-02-15T15:17:22.138Z,44.58
2019-02-15T15:19:53.996Z,44.80
2019-02-15T15:22:23.372Z,44.23
2019-02-15T15:24:53.076Z,46.77
2019-02-15T15:27:22.990Z,43.98
2019-02-15T15:29:52.606Z,45.66
2019-02-15T15:32:22.546Z,47.15
2019-02-15T15:34:52.876Z,45.97
2019-02-15T15:37:23.472Z,47.93
2019-02-15T15:39:52.556Z,47.47
2019-02-15T15:42:22.382Z,47.37
2019-02-15T15:44:51.885Z,47.36
2019-02-15T15:47:21.599Z,48.36
2019-02-15T15:49:51.406Z,48.32
2019-02-15T15:52:20.938Z,49.33
2019-02-15T15:54:50.776Z,49.79
2019-02-15T15:57:20.336Z,49.76
2019-02-15T15:59:49.956Z,49.79
2019-02-15T16:02:19.530Z,49.48
2019-02-15T16:04:48.746Z,50.78
2019-02-15T16:07:18.199Z,50.52
2019-02-15T16:09:48.044Z,51.11
2019-02-15T16:12:17.694Z,51.50
2019-02-15T16:14:47.772Z,50.60
2019-02-15T16:17:16.970Z,50.70
2019-02-15T16:19:49.412Z,51.15
2019-02-15T16:22:17.419Z,51.77
2019-02-15T16:24:46.927Z,51.18
2019-02-15T16:27:17.066Z,52.16
2019-02-15T16:29:46.548Z,52.91
2019-02-15T16:32:17.461Z,51.98
2019-02-15T16:34:50.370Z,52.49
2019-02-15T16:37:19.679Z,53.20
2019-02-15T16:39:49.086Z,52.51
2019-02-15T16:42:18.672Z,53.28
2019-02-15T16:44:48.229Z,53.13
2019-02-15T16:47:17.996Z,52.76
2019-02-15T16:49:48.836Z,53.62
2019-02-15T16:52:18.596Z,54.12
2019-02-15T16:54:48.058Z,54.10
2019-02-15T16:57:18.004Z,53.69
2019-02-15T16:59:47.630Z,54.48
2019-02-15T17:02:17.204Z,53.60
2019-02-15T17:04:47.253Z,53.17
2019-02-15T17:07:18.329Z,52.52
2019-02-15T17:09:49.062Z,53.13
2019-02-15T17:12:18.395Z,54.67
2019-02-15T17:14:48.017Z,55.65
2019-02-15T17:17:17.539Z,54.04
2019-02-15T17:19:47.204Z,54.32
2019-02-15T17:22:17.015Z,55.69
2019-02-15T17:24:46.613Z,57.05
2019-02-15T17:27:17.438Z,54.99
2019-02-15T17:29:47.060Z,54.18
2019-02-15T17:32:18.016Z,54.07
2019-02-15T17:34:48.206Z,55.66
2019-02-15T17:37:18.054Z,56.13
2019-02-15T17:39:48.064Z,56.19
2019-02-15T17:42:19.837Z,56.19
2019-02-15T17:44:49.707Z,56.15
2019-02-15T17:47:19.844Z,55.78
2019-02-15T17:49:49.130Z,55.08
2019-02-15T17:52:19.427Z,55.92
2019-02-15T17:54:50.809Z,56.99
2019-02-15T17:57:23.503Z,57.03
2019-02-15T17:59:52.698Z,56.13
2019-02-15T18:02:22.166Z,57.24
2019-02-15T18:04:51.369Z,55.92
2019-02-15T18:07:39.382Z,55.62
2019-02-15T18:10:09.059Z,55.45
2019-02-15T18:12:38.474Z,55.32
2019-02-15T18:15:08.654Z,55.76
2019-02-15T18:17:37.957Z,55.98
2019-02-15T18:20:09.190Z,55.69
2019-02-15T18:22:39.163Z,55.43
2019-02-15T18:25:09.276Z,55.77
2019-02-15T18:27:38.962Z,56.44
2019-02-15T18:30:13.137Z,57.28
2019-02-15T18:32:44.324Z,56.87
2019-02-15T18:35:13.827Z,56.31
2019-02-15T18:37:43.403Z,55.79
2019-02-15T18:40:12.818Z,55.48
2019-02-15T18:42:42.651Z,56.21
2019-02-15T18:45:16.727Z,56.91
2019-02-15T18:47:47.608Z,56.10
2019-02-15T18:50:17.422Z,56.57
2019-02-15T18:52:52.043Z,57.58
2019-02-15T18:55:22.199Z,57.37
2019-02-15T18:57:51.539Z,56.70
2019-02-15T19:00:21.774Z,57.66
2019-02-15T19:02:52.075Z,59.14
2019-02-15T19:05:22.045Z,59.47
2019-02-15T19:11:19.890Z,59.34
2019-02-15T19:13:49.997Z,59.86
2019-02-15T19:16:20.804Z,60.10
2019-02-15T19:18:51.450Z,60.95
2019-02-15T19:21:21.323Z,60.62
2019-02-15T19:23:51.141Z,60.42
2019-02-15T19:26:20.675Z,61.54
2019-02-15T19:28:50.689Z,61.92
2019-02-15T19:31:20.396Z,62.26
2019-02-15T19:33:52.794Z,62.86
2019-02-15T19:36:23.215Z,63.84
2019-02-15T19:38:53.246Z,63.17
2019-02-15T19:41:23.384Z,62.94
2019-02-15T19:43:53.375Z,62.18
2019-02-15T19:46:23.033Z,62.56
2019-02-15T19:48:54.047Z,62.72
2019-02-15T19:51:23.811Z,63.79
2019-02-15T19:53:53.346Z,64.52
2019-02-15T19:56:22.897Z,64.43
2019-02-15T19:58:52.662Z,64.63
2019-02-15T20:01:22.508Z,64.42
2019-02-15T20:03:51.792Z,64.57
2019-02-15T20:06:21.140Z,65.17
2019-02-15T20:08:51.336Z,64.62
2019-02-15T20:11:20.793Z,64.67
2019-02-15T20:13:50.631Z,64.86
2019-02-15T20:16:20.722Z,65.18
2019-02-15T20:18:50.518Z,65.50
2019-02-15T20:21:19.663Z,65.75
2019-02-15T20:23:49.022Z,65.44
2019-02-15T20:26:18.470Z,64.89
2019-02-15T20:28:48.734Z,65.34
2019-02-15T20:31:18.512Z,64.98
2019-02-15T20:33:48.806Z,63.94
2019-02-15T20:36:18.019Z,63.72
2019-02-15T20:38:48.154Z,62.33
2019-02-15T20:41:18.185Z,61.78
2019-02-15T20:43:48.056Z,62.31
2019-02-15T20:46:18.454Z,62.59
2019-02-15T20:48:48.393Z,62.65
2019-02-15T20:51:18.512Z,64.04
2019-02-15T20:53:47.848Z,64.39
2019-02-15T20:56:17.486Z,64.41
2019-02-15T20:58:46.776Z,65.04
2019-02-15T21:01:16.241Z,65.14
2019-02-15T21:03:46.060Z,64.77
2019-02-15T21:06:15.569Z,65.11
2019-02-15T21:08:45.093Z,64.78
2019-02-15T21:11:14.617Z,66.26
2019-02-15T21:13:44.292Z,66.05
2019-02-15T21:16:14.240Z,66.19
2019-02-15T21:18:43.795Z,66.21
2019-02-15T21:21:13.197Z,66.27
2019-02-15T21:23:43.028Z,66.21
2019-02-15T21:26:13.540Z,66.39
2019-02-15T21:28:44.467Z,66.60
2019-02-15T21:31:14.847Z,66.04
2019-02-15T21:33:44.219Z,66.68
2019-02-15T21:36:13.494Z,66.04
2019-02-15T21:38:43.444Z,66.35
2019-02-15T21:41:12.862Z,66.34
2019-02-15T21:43:44.154Z,65.00
2019-02-15T21:46:14.544Z,64.69
2019-02-15T21:48:43.777Z,65.43
2019-02-15T21:51:14.010Z,65.87
2019-02-15T21:53:44.209Z,66.53
2019-02-15T21:56:14.363Z,66.64
2019-02-15T21:58:44.473Z,66.98
2019-02-15T22:01:15.004Z,67.20
2019-02-15T22:03:44.365Z,68.39
2019-02-15T22:06:13.837Z,68.35
2019-02-15T22:08:43.526Z,68.65
2019-02-15T22:11:13.352Z,68.12
2019-02-15T22:13:43.045Z,68.67
2019-02-15T22:16:12.974Z,68.94
2019-02-15T22:18:42.778Z,69.14
2019-02-15T22:21:12.650Z,68.13
2019-02-15T22:23:42.283Z,68.24
2019-02-15T22:26:12.006Z,68.66
2019-02-15T22:28:41.201Z,68.55
2019-02-15T22:31:11.987Z,69.06
2019-02-15T22:33:41.488Z,68.87
2019-02-15T22:36:11.652Z,68.70
2019-02-15T22:38:42.154Z,69.10
2019-02-15T22:41:14.732Z,68.93
2019-02-15T22:43:44.867Z,68.45
2019-02-15T22:46:14.808Z,68.76
2019-02-15T22:48:44.799Z,68.65
2019-02-15T22:51:14.781Z,68.90
2019-02-15T22:53:45.334Z,69.41
2019-02-15T22:56:15.210Z,69.12
2019-02-15T22:58:45.391Z,68.88
2019-02-15T23:01:16.620Z,69.61
2019-02-15T23:03:45.820Z,68.75
2019-02-15T23:06:15.530Z,69.35
2019-02-15T23:08:45.668Z,70.78
2019-02-15T23:11:15.496Z,69.66
2019-02-15T23:13:44.994Z,69.40
2019-02-15T23:16:15.017Z,70.38
2019-02-15T23:18:44.494Z,70.60
2019-02-15T23:21:14.670Z,70.12
2019-02-15T23:23:43.806Z,69.77
2019-02-15T23:26:13.125Z,70.21
2019-02-15T23:28:42.298Z,70.46
2019-02-15T23:31:11.712Z,71.05
2019-02-15T23:33:42.698Z,70.81
2019-02-15T23:36:12.206Z,70.61
2019-02-15T23:38:42.274Z,70.59
2019-02-15T23:41:11.571Z,70.65
2019-02-15T23:43:40.885Z,70.95
2019-02-15T23:46:10.087Z,70.72
2019-02-15T23:48:39.367Z,70.21
2019-02-15T23:51:09.643Z,70.30
2019-02-15T23:53:39.848Z,71.10
2019-02-15T23:56:08.918Z,70.24
2019-02-15T23:58:38.161Z,70.29
